createdAt,value
2022-11-30T00:02:00.684Z,119.60
2022-11-30T00:04:29.241Z,140.33
2022-11-30T00:06:56.296Z,145.57
2022-11-30T00:09:23.606Z,148.03
2022-11-30T00:11:50.683Z,139.27
2022-11-30T00:14:19.350Z,114.73
2022-11-30T00:16:46.456Z,140.37
2022-11-30T00:19:14.599Z,135.67
2022-11-30T00:21:43.323Z,147.70
2022-11-30T00:24:10.386Z,176.37
2022-11-30T00:26:37.477Z,156.07
2022-11-30T00:29:05.004Z,166.10
2022-11-30T00:31:32.704Z,156.47
2022-11-30T00:33:59.910Z,204.73
2022-11-30T00:36:27.007Z,168.07
2022-11-30T00:38:56.182Z,149.97
2022-11-30T00:41:23.302Z,136.63
2022-11-30T00:43:50.411Z,178.20
2022-11-30T00:46:17.502Z,139.87
2022-11-30T00:48:44.798Z,179.27
2022-11-30T00:51:12.438Z,161.40
2022-11-30T00:53:39.755Z,181.77
2022-11-30T00:56:08.846Z,161.83
2022-11-30T00:58:35.985Z,138.17
2022-11-30T01:01:03.134Z,167.17
2022-11-30T01:03:30.365Z,153.90
2022-11-30T01:06:01.608Z,163.67
2022-11-30T01:08:28.698Z,166.83
2022-11-30T01:10:55.781Z,197.07
2022-11-30T01:13:25.155Z,168.60
2022-11-30T01:15:52.286Z,181.27
2022-11-30T01:18:19.423Z,144.43
2022-11-30T01:20:46.529Z,152.13
2022-11-30T01:23:13.700Z,168.33
2022-11-30T01:25:40.820Z,150.63
2022-11-30T01:28:09.778Z,126.13
2022-11-30T01:30:38.297Z,150.27
2022-11-30T01:33:05.461Z,189.13
2022-11-30T01:35:32.572Z,160.00
2022-11-30T01:37:59.699Z,202.23
2022-11-30T01:40:26.796Z,233.67
2022-11-30T01:42:53.919Z,177.33
2022-11-30T01:45:21.091Z,178.23
2022-11-30T01:47:51.315Z,169.03
2022-11-30T01:50:20.682Z,184.70
2022-11-30T01:52:49.072Z,184.67
2022-11-30T01:55:18.155Z,168.20
2022-11-30T01:57:48.267Z,151.10
2022-11-30T02:00:15.929Z,170.90
2022-11-30T02:02:48.656Z,162.47
2022-11-30T02:05:17.805Z,161.23
2022-11-30T02:07:45.488Z,174.57
2022-11-30T02:10:16.268Z,179.80
2022-11-30T02:12:52.172Z,200.93
2022-11-30T02:15:21.819Z,188.60
2022-11-30T02:17:51.585Z,181.73
2022-11-30T02:20:33.714Z,200.00
2022-11-30T02:23:10.704Z,183.57
2022-11-30T02:25:40.799Z,234.63
2022-11-30T02:28:14.222Z,230.43
2022-11-30T02:30:44.478Z,258.67
2022-11-30T02:33:13.991Z,268.07
2022-11-30T02:35:42.244Z,286.30
2022-11-30T02:38:09.753Z,367.40
2022-11-30T02:40:36.895Z,291.27
2022-11-30T02:43:05.323Z,442.97
2022-11-30T02:45:36.135Z,353.43
2022-11-30T02:48:08.400Z,356.53
2022-11-30T02:50:38.662Z,373.63
2022-11-30T02:53:05.843Z,327.93
2022-11-30T02:55:32.973Z,491.30
2022-11-30T02:58:00.088Z,392.13
2022-11-30T03:00:27.372Z,546.70
2022-11-30T03:02:54.556Z,457.30
2022-11-30T03:05:23.288Z,332.93
2022-11-30T03:07:50.447Z,485.00
2022-11-30T03:10:17.759Z,309.63
2022-11-30T03:12:44.880Z,306.00
2022-11-30T03:15:12.054Z,236.13
2022-11-30T03:17:39.149Z,244.37
2022-11-30T03:20:06.943Z,228.27
2022-11-30T03:22:35.373Z,209.67
2022-11-30T03:25:02.451Z,221.90
2022-11-30T03:27:29.563Z,201.57
2022-11-30T03:29:56.653Z,210.07
2022-11-30T03:32:23.762Z,211.07
2022-11-30T03:34:50.837Z,176.60
2022-11-30T03:37:18.027Z,192.30
2022-11-30T03:39:46.445Z,208.73
2022-11-30T03:42:13.545Z,181.13
2022-11-30T03:44:40.606Z,181.43
2022-11-30T03:47:07.692Z,152.23
2022-11-30T03:49:34.788Z,153.13
2022-11-30T03:52:01.895Z,163.93
2022-11-30T03:54:28.988Z,132.23
2022-11-30T03:56:57.415Z,135.93
2022-11-30T03:59:24.514Z,130.20
2022-11-30T04:01:51.597Z,145.47
2022-11-30T04:04:18.746Z,124.57
2022-11-30T04:06:45.826Z,135.57
2022-11-30T04:09:12.972Z,167.47
2022-11-30T04:11:40.064Z,208.40
2022-11-30T04:14:08.565Z,209.87
2022-11-30T04:16:35.636Z,210.37
2022-11-30T04:19:02.868Z,219.30
2022-11-30T04:21:30.040Z,231.77
2022-11-30T04:23:57.152Z,219.77
2022-11-30T04:26:24.329Z,219.70
2022-11-30T04:28:51.539Z,211.03
2022-11-30T04:31:19.975Z,211.07
2022-11-30T04:33:47.102Z,235.80
2022-11-30T04:36:17.180Z,278.97
2022-11-30T04:38:44.261Z,266.40
2022-11-30T04:41:11.347Z,242.47
2022-11-30T04:43:38.453Z,227.03
2022-11-30T04:46:06.174Z,202.37
2022-11-30T04:48:34.704Z,222.17
2022-11-30T04:51:02.472Z,220.20
2022-11-30T04:53:29.552Z,215.87
2022-11-30T04:55:56.646Z,209.47
2022-11-30T04:58:23.768Z,169.83
2022-11-30T05:00:51.038Z,190.50
2022-11-30T05:03:18.109Z,184.73
2022-11-30T05:05:46.539Z,133.27
2022-11-30T05:08:13.626Z,126.03
2022-11-30T05:10:40.703Z,110.27
2022-11-30T05:13:07.823Z,93.20
2022-11-30T05:15:34.924Z,83.20
2022-11-30T05:18:02.305Z,83.20
2022-11-30T05:20:29.714Z,78.93
2022-11-30T05:22:58.176Z,82.90
2022-11-30T05:25:25.271Z,75.73
2022-11-30T05:27:52.363Z,77.07
2022-11-30T05:30:19.436Z,77.17
2022-11-30T05:32:46.517Z,78.93
2022-11-30T05:35:13.596Z,81.00
2022-11-30T05:37:40.700Z,81.70
2022-11-30T05:40:09.913Z,69.57
2022-11-30T05:42:36.992Z,67.53
2022-11-30T05:45:04.327Z,74.17
2022-11-30T05:47:31.395Z,63.83
2022-11-30T05:49:58.528Z,60.53
2022-11-30T05:52:25.603Z,69.70
2022-11-30T05:54:52.702Z,57.97
2022-11-30T05:57:21.112Z,70.97
2022-11-30T05:59:48.220Z,53.43
2022-11-30T06:02:15.463Z,60.77
2022-11-30T06:04:42.599Z,53.67
2022-11-30T06:07:09.702Z,54.00
2022-11-30T06:09:36.772Z,50.57
2022-11-30T06:12:03.966Z,56.20
2022-11-30T06:14:32.420Z,49.90
2022-11-30T06:16:59.515Z,47.20
2022-11-30T06:19:26.593Z,52.13
2022-11-30T06:21:53.698Z,50.53
2022-11-30T06:24:20.794Z,50.80
2022-11-30T06:26:47.900Z,49.03
2022-11-30T06:29:14.969Z,47.67
2022-11-30T06:31:43.526Z,57.77
2022-11-30T06:34:10.603Z,49.97
2022-11-30T06:36:37.728Z,53.53
2022-11-30T06:39:04.989Z,53.97
2022-11-30T06:41:32.132Z,59.93
2022-11-30T06:43:59.222Z,55.17
2022-11-30T06:46:26.362Z,55.10
2022-11-30T06:48:54.791Z,56.90
2022-11-30T06:51:21.909Z,54.50
2022-11-30T06:53:49.030Z,49.80
2022-11-30T06:56:16.112Z,58.33
2022-11-30T06:58:43.231Z,52.20
2022-11-30T07:01:11.879Z,62.27
2022-11-30T07:03:39.356Z,53.20
2022-11-30T07:06:09.018Z,53.03
2022-11-30T07:08:36.216Z,46.07
2022-11-30T07:11:03.369Z,54.93
2022-11-30T07:13:30.683Z,51.03
2022-11-30T07:15:57.824Z,50.60
2022-11-30T07:18:30.313Z,53.87
2022-11-30T07:20:59.556Z,52.87
2022-11-30T07:23:28.066Z,51.97
2022-11-30T07:25:59.707Z,61.27
2022-11-30T07:28:26.921Z,48.53
2022-11-30T07:30:54.085Z,54.87
2022-11-30T07:33:21.192Z,49.30
2022-11-30T07:35:48.305Z,48.73
2022-11-30T07:38:15.401Z,48.97
2022-11-30T07:40:43.835Z,42.73
2022-11-30T07:43:10.904Z,44.10
2022-11-30T07:45:38.054Z,45.23
2022-11-30T07:48:05.203Z,49.90
2022-11-30T07:50:32.417Z,47.40
2022-11-30T07:52:59.494Z,52.83
2022-11-30T07:55:26.613Z,39.80
2022-11-30T07:57:55.077Z,44.20
2022-11-30T08:00:22.197Z,47.40
2022-11-30T08:02:50.524Z,39.07
2022-11-30T08:05:17.938Z,49.33
2022-11-30T08:07:45.138Z,45.90
2022-11-30T08:10:12.629Z,50.40
2022-11-30T08:12:39.723Z,45.67
2022-11-30T08:15:19.771Z,47.13
2022-11-30T08:17:48.034Z,47.73
2022-11-30T08:20:15.196Z,57.33
2022-11-30T08:22:42.345Z,46.67
2022-11-30T08:25:09.838Z,46.67
2022-11-30T08:27:36.943Z,48.13
2022-11-30T08:30:04.244Z,52.83
2022-11-30T08:32:32.957Z,51.63
2022-11-30T08:35:00.089Z,52.37
2022-11-30T08:37:27.206Z,51.20
2022-11-30T08:39:54.299Z,50.00
2022-11-30T08:42:21.423Z,50.73
2022-11-30T08:44:48.480Z,56.20
2022-11-30T08:47:15.769Z,52.73
2022-11-30T08:49:44.263Z,50.27
2022-11-30T08:52:19.049Z,56.43
2022-11-30T08:54:47.442Z,52.07
2022-11-30T08:57:15.499Z,58.63
2022-11-30T08:59:42.626Z,51.17
2022-11-30T09:02:10.218Z,61.13
2022-11-30T09:04:37.361Z,61.07
2022-11-30T09:07:05.967Z,66.73
2022-11-30T09:09:33.074Z,65.60
2022-11-30T09:12:00.210Z,69.73
2022-11-30T09:14:27.345Z,82.17
2022-11-30T09:16:54.596Z,73.40
2022-11-30T09:19:22.154Z,79.07
2022-11-30T09:21:51.933Z,70.53
2022-11-30T09:24:20.978Z,67.23
2022-11-30T09:26:48.273Z,72.33
2022-11-30T09:29:15.502Z,72.07
2022-11-30T09:31:42.613Z,71.70
2022-11-30T09:34:11.363Z,67.73
2022-11-30T09:36:38.475Z,75.67
2022-11-30T09:39:05.607Z,66.57
2022-11-30T09:41:40.713Z,74.77
2022-11-30T09:44:13.789Z,87.47
2022-11-30T09:46:46.872Z,84.23
2022-11-30T09:49:17.909Z,90.77
2022-11-30T09:51:45.806Z,94.20
2022-11-30T09:54:14.393Z,89.87
2022-11-30T09:56:43.464Z,97.27
2022-11-30T09:59:14.399Z,97.93
2022-11-30T10:01:45.720Z,99.57
2022-11-30T10:04:20.215Z,101.20
2022-11-30T10:06:51.768Z,110.50
2022-11-30T10:09:28.748Z,103.90
2022-11-30T10:12:00.854Z,91.20
2022-11-30T10:14:42.431Z,81.10
2022-11-30T10:17:19.004Z,87.77
2022-11-30T10:19:52.269Z,106.63
2022-11-30T10:22:23.162Z,106.33
2022-11-30T10:24:57.574Z,99.13
2022-11-30T10:27:32.969Z,110.83
2022-11-30T10:30:01.473Z,109.30
2022-11-30T10:32:31.759Z,103.30
2022-11-30T10:35:02.477Z,105.67
2022-11-30T10:37:33.229Z,100.87
2022-11-30T10:40:02.152Z,104.77
2022-11-30T10:42:32.909Z,97.17
2022-11-30T10:45:01.136Z,100.07
2022-11-30T10:47:30.159Z,91.40
2022-11-30T10:49:57.226Z,96.47
2022-11-30T10:52:27.192Z,94.20
2022-11-30T10:55:00.534Z,81.77
2022-11-30T10:57:31.651Z,93.50
2022-11-30T11:00:00.888Z,88.73
2022-11-30T11:02:35.919Z,85.17
2022-11-30T11:05:10.016Z,90.53
2022-11-30T11:07:44.912Z,91.53
2022-11-30T11:10:13.924Z,70.97
2022-11-30T11:12:46.944Z,78.50
2022-11-30T11:15:18.376Z,72.30
2022-11-30T11:17:45.615Z,76.63
2022-11-30T11:20:27.959Z,69.40
2022-11-30T11:22:55.160Z,64.07
2022-11-30T11:25:22.980Z,62.83
2022-11-30T11:27:53.707Z,59.53
2022-11-30T11:30:28.916Z,60.50
2022-11-30T11:32:59.488Z,51.83
2022-11-30T11:35:34.525Z,56.03
2022-11-30T11:38:01.645Z,57.03
2022-11-30T11:40:28.769Z,61.13
2022-11-30T11:42:57.445Z,62.07
2022-11-30T11:45:26.097Z,63.43
2022-11-30T11:47:58.706Z,62.90
2022-11-30T11:50:58.270Z,62.37
2022-11-30T11:53:16.257Z,56.80
2022-11-30T11:55:43.733Z,57.60
2022-11-30T11:58:17.660Z,59.03
2022-11-30T12:00:44.889Z,51.47
2022-11-30T12:03:15.191Z,56.87
2022-11-30T12:05:44.624Z,59.97
2022-11-30T12:08:16.235Z,57.70
2022-11-30T12:10:53.278Z,56.70
2022-11-30T12:13:22.661Z,57.63
2022-11-30T12:15:54.147Z,66.70
2022-11-30T12:18:24.455Z,51.63
2022-11-30T12:20:54.948Z,50.53
2022-11-30T12:23:27.879Z,52.17
2022-11-30T12:25:57.839Z,62.10
2022-11-30T12:28:30.055Z,63.40
2022-11-30T12:31:05.875Z,59.97
2022-11-30T12:33:38.762Z,43.03
2022-11-30T12:36:11.633Z,50.57
2022-11-30T12:38:42.132Z,53.97
2022-11-30T12:41:19.669Z,49.70
2022-11-30T12:43:52.311Z,56.40
2022-11-30T12:46:22.818Z,49.83
2022-11-30T12:48:53.670Z,49.67
2022-11-30T12:51:26.387Z,55.63
2022-11-30T12:53:59.673Z,52.27
2022-11-30T12:56:31.313Z,60.53
2022-11-30T12:59:05.731Z,68.07
2022-11-30T13:01:39.567Z,48.80
2022-11-30T13:04:10.084Z,60.93
2022-11-30T13:06:40.385Z,56.50
2022-11-30T13:09:14.998Z,55.33
2022-11-30T13:11:43.996Z,50.00
2022-11-30T13:14:13.587Z,60.13
2022-11-30T13:16:41.626Z,57.53
2022-11-30T13:19:16.011Z,53.93
2022-11-30T13:21:48.277Z,53.30
2022-11-30T13:24:20.862Z,56.90
2022-11-30T13:26:53.095Z,63.20
2022-11-30T13:29:27.487Z,55.07
2022-11-30T13:31:57.358Z,61.07
2022-11-30T13:34:26.075Z,57.00
2022-11-30T13:37:00.900Z,63.80
2022-11-30T13:39:28.617Z,55.80
2022-11-30T13:42:16.796Z,54.17
2022-11-30T13:44:45.439Z,58.47
2022-11-30T13:47:17.665Z,60.27
2022-11-30T13:49:45.035Z,61.73
2022-11-30T13:52:22.609Z,57.10
2022-11-30T13:54:51.545Z,58.43
2022-11-30T13:57:39.449Z,62.47
2022-11-30T14:00:21.477Z,54.67
2022-11-30T14:02:53.317Z,56.60
2022-11-30T14:05:35.310Z,59.30
2022-11-30T14:08:16.088Z,63.43
2022-11-30T14:10:43.908Z,59.40
2022-11-30T14:13:25.893Z,59.57
2022-11-30T14:15:56.982Z,61.60
2022-11-30T14:18:30.911Z,54.33
2022-11-30T14:21:00.318Z,66.53
2022-11-30T14:23:30.056Z,52.20
2022-11-30T14:25:58.170Z,57.63
2022-11-30T14:28:26.345Z,53.00
2022-11-30T14:30:55.525Z,59.07
2022-11-30T14:33:25.790Z,51.00
2022-11-30T14:35:55.422Z,57.90
2022-11-30T14:38:25.176Z,57.60
2022-11-30T14:40:53.145Z,54.50
2022-11-30T14:43:20.789Z,58.93
2022-11-30T14:46:00.268Z,61.10
2022-11-30T14:48:31.829Z,53.53
2022-11-30T14:51:01.908Z,58.30
2022-11-30T14:53:33.453Z,54.87
2022-11-30T14:56:02.476Z,54.70
2022-11-30T14:58:32.250Z,61.67
2022-11-30T15:00:59.775Z,51.07
2022-11-30T15:03:28.231Z,57.50
2022-11-30T15:05:56.694Z,57.67
2022-11-30T15:08:26.256Z,54.87
2022-11-30T15:10:54.151Z,62.00
2022-11-30T15:13:21.273Z,58.73
2022-11-30T15:15:52.742Z,59.53
2022-11-30T15:18:20.944Z,66.43
2022-11-30T15:20:50.685Z,53.07
2022-11-30T15:23:17.997Z,59.33
2022-11-30T15:25:48.060Z,50.97
2022-11-30T15:28:18.388Z,60.90
2022-11-30T15:30:47.124Z,68.90
2022-11-30T15:33:17.688Z,50.10
2022-11-30T15:36:13.626Z,52.27
2022-11-30T15:38:33.997Z,63.30
2022-11-30T15:41:03.659Z,60.70
2022-11-30T15:43:33.465Z,54.27
2022-11-30T15:46:00.658Z,49.20
2022-11-30T15:48:29.151Z,59.03
2022-11-30T15:50:56.293Z,57.30
2022-11-30T15:53:25.058Z,51.50
2022-11-30T15:55:52.741Z,57.07
2022-11-30T15:58:26.395Z,53.87
2022-11-30T16:01:04.229Z,51.60
2022-11-30T16:03:31.562Z,45.40
2022-11-30T16:05:59.337Z,57.63
2022-11-30T16:08:26.784Z,56.60
2022-11-30T16:10:53.904Z,57.80
2022-11-30T16:13:21.887Z,51.30
2022-11-30T16:15:51.200Z,52.60
2022-11-30T16:18:19.480Z,56.83
2022-11-30T16:20:48.013Z,58.90
2022-11-30T16:23:15.716Z,57.13
2022-11-30T16:25:43.518Z,63.30
2022-11-30T16:28:10.646Z,61.20
2022-11-30T16:30:38.130Z,50.83
2022-11-30T16:33:06.564Z,59.13
2022-11-30T16:35:35.937Z,65.70
2022-11-30T16:38:03.055Z,58.83
2022-11-30T16:40:35.318Z,67.13
2022-11-30T16:43:05.446Z,55.83
2022-11-30T16:45:34.979Z,59.30
2022-11-30T16:48:02.234Z,65.83
2022-11-30T16:50:30.777Z,69.10
2022-11-30T16:52:57.847Z,53.00
2022-11-30T16:55:25.831Z,55.47
2022-11-30T16:57:52.925Z,54.13
2022-11-30T17:00:20.225Z,64.30
2022-11-30T17:02:50.435Z,60.50
2022-11-30T17:05:17.568Z,60.93
2022-11-30T17:07:46.057Z,53.80
2022-11-30T17:10:13.347Z,52.83
2022-11-30T17:12:40.444Z,52.70
2022-11-30T17:15:08.141Z,49.33
2022-11-30T17:17:35.250Z,56.47
2022-11-30T17:20:02.331Z,55.53
2022-11-30T17:22:29.446Z,57.47
2022-11-30T17:24:57.934Z,68.03
2022-11-30T17:27:25.034Z,61.97
2022-11-30T17:29:52.132Z,58.90
2022-11-30T17:32:19.188Z,59.23
2022-11-30T17:34:46.702Z,55.40
2022-11-30T17:37:14.129Z,58.47
2022-11-30T17:39:41.371Z,52.70
2022-11-30T17:42:09.973Z,75.10
2022-11-30T17:44:37.105Z,63.73
2022-11-30T17:47:04.202Z,63.83
2022-11-30T17:49:31.299Z,59.03
2022-11-30T17:51:58.406Z,52.17
2022-11-30T17:54:25.465Z,72.03
2022-11-30T17:56:52.608Z,51.80
2022-11-30T17:59:21.118Z,51.23
2022-11-30T18:01:48.268Z,55.37
2022-11-30T18:04:15.478Z,53.67
2022-11-30T18:06:42.556Z,58.07
2022-11-30T18:09:09.665Z,60.93
2022-11-30T18:11:36.730Z,52.03
2022-11-30T18:14:03.889Z,63.13
2022-11-30T18:16:33.379Z,63.43
2022-11-30T18:19:00.602Z,58.07
2022-11-30T18:21:29.223Z,73.80
2022-11-30T18:23:57.819Z,61.00
2022-11-30T18:26:25.310Z,66.57
2022-11-30T18:28:53.048Z,65.23
2022-11-30T18:31:20.537Z,67.73
2022-11-30T18:33:49.085Z,68.80
2022-11-30T18:36:16.215Z,66.17
2022-11-30T18:38:43.281Z,62.77
2022-11-30T18:41:10.438Z,65.60
2022-11-30T18:43:39.792Z,69.47
2022-11-30T18:46:07.501Z,59.23
2022-11-30T18:48:34.805Z,64.67
2022-11-30T18:51:10.360Z,76.57
2022-11-30T18:53:37.473Z,62.90
2022-11-30T18:56:08.175Z,84.20
2022-11-30T18:58:35.321Z,74.60
2022-11-30T19:01:06.622Z,76.97
2022-11-30T19:03:33.797Z,77.23
2022-11-30T19:06:02.812Z,58.40
2022-11-30T19:08:31.404Z,65.50
2022-11-30T19:11:05.001Z,65.97
2022-11-30T19:13:32.874Z,75.00
2022-11-30T19:16:03.140Z,63.53
2022-11-30T19:18:30.270Z,72.73
2022-11-30T19:20:57.369Z,56.77
2022-11-30T19:23:24.459Z,55.50
2022-11-30T19:25:52.910Z,53.30
2022-11-30T19:28:19.950Z,48.90
2022-11-30T19:30:47.073Z,45.77
2022-11-30T19:33:14.193Z,46.43
2022-11-30T19:35:41.309Z,44.43
2022-11-30T19:38:08.368Z,44.13
2022-11-30T19:40:37.434Z,38.17
2022-11-30T19:43:05.943Z,49.97
2022-11-30T19:45:34.333Z,41.60
2022-11-30T19:48:01.497Z,44.80
2022-11-30T19:50:28.572Z,42.43
2022-11-30T19:52:55.691Z,44.47
2022-11-30T19:55:22.769Z,40.23
2022-11-30T19:57:49.872Z,36.47
2022-11-30T20:00:18.854Z,47.50
2022-11-30T20:02:46.004Z,35.33
2022-11-30T20:05:13.182Z,33.27
2022-11-30T20:07:40.277Z,44.73
2022-11-30T20:10:07.920Z,39.17
2022-11-30T20:12:35.009Z,39.07
2022-11-30T20:15:02.108Z,35.27
2022-11-30T20:17:30.530Z,36.67
2022-11-30T20:19:57.630Z,30.30
2022-11-30T20:22:24.751Z,27.20
2022-11-30T20:24:51.851Z,26.43
2022-11-30T20:27:18.962Z,27.80
2022-11-30T20:29:46.058Z,19.90
2022-11-30T20:32:13.142Z,22.03
2022-11-30T20:34:43.822Z,19.80
2022-11-30T20:37:11.178Z,27.60
2022-11-30T20:39:44.052Z,19.30
2022-11-30T20:42:12.713Z,23.40
2022-11-30T20:44:39.815Z,22.33
2022-11-30T20:47:06.899Z,21.50
2022-11-30T20:49:34.007Z,26.33
2022-11-30T20:52:02.445Z,26.40
2022-11-30T20:54:29.554Z,21.00
2022-11-30T20:56:56.770Z,25.90
2022-11-30T20:59:24.014Z,24.70
2022-11-30T21:01:51.253Z,28.03
2022-11-30T21:04:18.441Z,24.20
2022-11-30T21:06:45.837Z,33.60
2022-11-30T21:09:14.655Z,25.87
2022-11-30T21:11:41.923Z,23.00
2022-11-30T21:14:09.080Z,30.43
2022-11-30T21:16:36.197Z,32.43
2022-11-30T21:19:03.557Z,21.03
2022-11-30T21:21:31.893Z,29.23
2022-11-30T21:23:59.352Z,22.97
2022-11-30T21:26:29.277Z,34.67
2022-11-30T21:28:59.288Z,21.30
2022-11-30T21:31:26.430Z,27.80
2022-11-30T21:33:54.099Z,26.77
2022-11-30T21:36:22.180Z,25.33
2022-11-30T21:38:53.451Z,24.07
2022-11-30T21:41:20.630Z,28.17
2022-11-30T21:43:49.080Z,20.67
2022-11-30T21:46:16.773Z,23.87
2022-11-30T21:48:45.132Z,25.10
2022-11-30T21:51:13.284Z,26.23
2022-11-30T21:53:41.055Z,23.07
2022-11-30T21:56:09.213Z,27.00
2022-11-30T21:58:36.333Z,24.63
2022-11-30T22:01:04.773Z,26.83
2022-11-30T22:03:32.137Z,26.93
2022-11-30T22:05:59.893Z,21.03
2022-11-30T22:08:26.998Z,23.40
2022-11-30T22:10:54.093Z,27.87
2022-11-30T22:13:21.570Z,28.40
2022-11-30T22:15:48.687Z,27.33
2022-11-30T22:18:17.152Z,29.57
2022-11-30T22:20:44.258Z,24.80
2022-11-30T22:23:11.325Z,26.13
2022-11-30T22:25:38.515Z,25.03
2022-11-30T22:28:05.586Z,24.87
2022-11-30T22:30:33.664Z,27.87
2022-11-30T22:33:00.749Z,24.53
2022-11-30T22:35:29.199Z,27.13
2022-11-30T22:37:56.259Z,26.03
2022-11-30T22:40:23.359Z,30.03
2022-11-30T22:42:50.420Z,27.33
2022-11-30T22:45:17.627Z,35.97
2022-11-30T22:47:44.725Z,29.93
2022-11-30T22:50:12.338Z,37.57
2022-11-30T22:53:01.967Z,31.23
2022-11-30T22:55:28.016Z,34.60
2022-11-30T22:57:55.201Z,38.90
2022-11-30T23:00:22.330Z,29.33
2022-11-30T23:02:49.483Z,34.40
2022-11-30T23:05:16.707Z,32.63
2022-11-30T23:07:45.181Z,31.67
2022-11-30T23:10:12.673Z,29.60
2022-11-30T23:12:58.605Z,30.23
2022-11-30T23:15:26.886Z,34.40
2022-11-30T23:17:53.993Z,29.70
2022-11-30T23:20:21.104Z,34.57
2022-11-30T23:22:49.580Z,33.63
2022-11-30T23:25:16.673Z,31.97
2022-11-30T23:27:43.762Z,36.30
2022-11-30T23:30:11.019Z,33.83
2022-11-30T23:32:38.214Z,35.00
2022-11-30T23:35:05.533Z,39.03
2022-11-30T23:37:32.651Z,33.50
2022-11-30T23:40:01.081Z,34.30
2022-11-30T23:42:28.155Z,36.23
2022-11-30T23:44:55.263Z,47.43
2022-11-30T23:47:22.386Z,40.40
2022-11-30T23:49:49.800Z,45.93
2022-11-30T23:52:17.071Z,41.50
2022-11-30T23:54:44.182Z,43.70
2022-11-30T23:57:12.603Z,42.93
2022-11-30T23:59:39.700Z,46.83
